Time;durP1;ratioP1;P1;durP2;ratioP2;P2;SDS_P1;SDS_P2;PMS_P1;PMS_P2;Temp;Humidity;BMP_temperature;BMP_pressure;BME280_temperature;BME280_humidity;BME280_pressure;Samples;Min_cycle;Max_cycle;Signal;HPM_P1;HPM_P2
2021/05/10 00:00:20;;;;;;;33.47;19.90;;;7.30;71.00;;;;;;4975845;28;20029;-84
2021/05/10 00:02:46;;;;;;;21.80;14.15;;;7.30;71.20;;;;;;4975995;28;20035;-83
2021/05/10 00:05:12;;;;;;;23.67;13.70;;;7.30;71.20;;;;;;4992925;28;20031;-82
2021/05/10 00:07:37;;;;;;;16.50;11.18;;;7.30;71.20;;;;;;4983706;28;20027;-83
2021/05/10 00:10:07;;;;;;;24.33;15.90;;;7.30;71.10;;;;;;4976677;28;20023;-84
2021/05/10 00:12:33;;;;;;;42.75;22.77;;;7.30;71.30;;;;;;4975861;28;20067;-82
2021/05/10 00:14:59;;;;;;;19.00;12.05;;;7.30;71.70;;;;;;4976329;28;20373;-82
2021/05/10 00:17:24;;;;;;;18.77;12.20;;;7.30;72.10;;;;;;4975686;28;20035;-82
2021/05/10 00:19:50;;;;;;;21.90;13.30;;;7.30;72.20;;;;;;4975981;28;20034;-83
2021/05/10 00:22:16;;;;;;;36.53;19.90;;;7.30;72.40;;;;;;4976144;28;20132;-82
2021/05/10 00:24:42;;;;;;;36.92;20.77;;;7.30;72.60;;;;;;4975356;28;20031;-83
2021/05/10 00:27:07;;;;;;;21.02;12.02;;;7.30;73.00;;;;;;4975192;28;20371;-82
2021/05/10 00:29:33;;;;;;;18.48;12.35;;;7.30;73.20;;;;;;4974370;28;20054;-82
2021/05/10 00:32:01;;;;;;;27.95;15.63;;;7.20;73.40;;;;;;4975797;28;20025;-83
2021/05/10 00:34:27;;;;;;;30.10;17.73;;;7.20;73.60;;;;;;4975392;28;20117;-82
2021/05/10 00:36:54;;;;;;;27.20;16.17;;;7.20;73.80;;;;;;4974829;28;20090;-82
2021/05/10 00:39:19;;;;;;;25.70;16.00;;;7.20;74.10;;;;;;4983247;28;20030;-80
2021/05/10 00:41:45;;;;;;;41.58;21.13;;;7.20;74.40;;;;;;4979002;28;20018;-80
2021/05/10 00:44:11;;;;;;;40.83;22.80;;;7.20;74.70;;;;;;4975297;28;20373;-80
2021/05/10 00:46:38;;;;;;;41.65;23.48;;;7.20;75.00;;;;;;4974688;28;20106;-80
2021/05/10 00:49:04;;;;;;;39.22;23.35;;;7.20;75.40;;;;;;4976443;28;20054;-80
2021/05/10 00:51:31;;;;;;;41.17;23.13;;;7.10;75.60;;;;;;4974812;28;20478;-80
2021/05/10 00:53:57;;;;;;;28.48;16.77;;;7.10;75.90;;;;;;4974262;28;20053;-80
2021/05/10 00:56:23;;;;;;;30.70;17.27;;;7.10;76.10;;;;;;4971751;28;20374;-76
2021/05/10 00:58:49;;;;;;;34.10;19.85;;;7.00;76.10;;;;;;4973795;28;20389;-78
2021/05/10 01:01:15;;;;;;;38.60;19.67;;;7.00;76.30;;;;;;5007896;28;20038;-77
2021/05/10 01:03:44;;;;;;;36.13;20.42;;;7.00;76.50;;;;;;4976668;28;20019;-78
2021/05/10 01:06:09;;;;;;;43.10;22.15;;;6.90;76.70;;;;;;4976624;28;20031;-79
2021/05/10 01:08:35;;;;;;;40.47;23.33;;;6.90;76.90;;;;;;4976673;28;20038;-77
2021/05/10 01:11:01;;;;;;;43.17;24.02;;;6.80;77.10;;;;;;4976674;28;20043;-78
2021/05/10 01:13:27;;;;;;;47.75;24.75;;;6.80;77.30;;;;;;4976835;28;20027;-77
2021/05/10 01:15:53;;;;;;;50.22;25.75;;;6.80;77.40;;;;;;4976962;28;20027;-78
2021/05/10 01:18:22;;;;;;;43.45;25.90;;;6.70;77.50;;;;;;4976877;28;20057;-78
2021/05/10 01:20:49;;;;;;;56.08;29.05;;;6.70;77.60;;;;;;4977448;28;20019;-77
2021/05/10 01:23:15;;;;;;;52.20;28.48;;;6.70;77.70;;;;;;4976477;28;20023;-82
2021/05/10 01:25:41;;;;;;;47.45;26.30;;;6.60;77.50;;;;;;4977356;28;20050;-81
2021/05/10 01:28:07;;;;;;;45.55;25.77;;;6.60;77.40;;;;;;4977894;28;20062;-82
2021/05/10 01:30:43;;;;;;;44.17;24.40;;;6.50;77.40;;;;;;5009868;28;20030;-84
2021/05/10 01:33:09;;;;;;;39.85;23.10;;;6.50;77.40;;;;;;4978828;28;20026;-84
2021/05/10 01:35:38;;;;;;;46.97;25.90;;;6.50;77.50;;;;;;4980686;28;20046;-84
2021/05/10 01:38:05;;;;;;;44.30;24.98;;;6.40;77.70;;;;;;4979605;28;20023;-83
2021/05/10 01:40:31;;;;;;;48.30;25.95;;;6.40;77.80;;;;;;4978392;28;20026;-82
2021/05/10 01:42:57;;;;;;;48.20;26.65;;;6.40;78.00;;;;;;4978115;28;20019;-82
2021/05/10 01:45:23;;;;;;;47.05;25.55;;;6.30;78.30;;;;;;4977577;28;20078;-83
2021/05/10 01:48:00;;;;;;;42.22;24.30;;;6.30;78.60;;;;;;4976025;28;20426;-82
2021/05/10 01:50:26;;;;;;;47.33;24.75;;;6.30;78.90;;;;;;4982439;28;20029;-80
2021/05/10 01:52:52;;;;;;;47.38;25.05;;;6.30;78.90;;;;;;4995904;28;20027;-81
2021/05/10 01:55:21;;;;;;;50.65;25.67;;;6.30;79.10;;;;;;4981448;28;20027;-81
2021/05/10 01:57:56;;;;;;;47.05;25.10;;;6.20;79.10;;;;;;4978839;28;20466;-81
2021/05/10 02:00:32;;;;;;;42.00;23.65;;;6.20;79.30;;;;;;4977322;28;20027;-82
2021/05/10 02:03:02;;;;;;;42.55;22.92;;;6.20;79.30;;;;;;4976698;28;20153;-82
2021/05/10 02:05:28;;;;;;;37.15;22.23;;;6.20;79.30;;;;;;4976583;28;20023;-83
2021/05/10 02:07:56;;;;;;;42.03;22.80;;;6.20;79.30;;;;;;4976771;28;20509;-82
2021/05/10 02:10:24;;;;;;;41.47;22.45;;;6.20;79.50;;;;;;5007223;28;20140;-82
2021/05/10 02:12:58;;;;;;;39.60;23.38;;;6.20;79.70;;;;;;4976679;28;20063;-83
2021/05/10 02:15:29;;;;;;;48.67;23.00;;;6.20;79.90;;;;;;4976901;28;20019;-82
2021/05/10 02:17:55;;;;;;;46.30;24.55;;;6.20;80.10;;;;;;4977028;28;20389;-83
2021/05/10 02:20:23;;;;;;;43.30;24.48;;;6.10;80.10;;;;;;4976535;28;20470;-81
2021/05/10 02:23:06;;;;;;;40.13;22.83;;;6.20;80.30;;;;;;4976420;28;20033;-80
2021/05/10 02:25:37;;;;;;;46.08;24.38;;;6.20;80.40;;;;;;4975992;28;20118;-81
2021/05/10 02:28:05;;;;;;;40.95;21.77;;;6.30;80.30;;;;;;4984261;28;20102;-80
2021/05/10 02:30:32;;;;;;;44.83;23.55;;;6.20;80.20;;;;;;4979080;28;20035;-81
2021/05/10 02:32:59;;;;;;;45.63;22.20;;;6.30;79.80;;;;;;4986473;28;20081;-80
2021/05/10 02:35:25;;;;;;;39.97;22.58;;;6.40;81.00;;;;;;4993024;28;20095;-80
2021/05/10 02:37:52;;;;;;;46.28;21.52;;;6.90;82.80;;;;;;5022959;28;20086;-80
2021/05/10 02:40:18;;;;;;;38.05;21.70;;;7.70;83.50;;;;;;5017838;28;20045;-81
2021/05/10 02:42:45;;;;;;;38.88;20.92;;;8.70;82.50;;;;;;4976261;28;20027;-81
2021/05/10 02:45:11;;;;;;;38.17;20.42;;;9.70;80.60;;;;;;4976632;28;20053;-81
2021/05/10 02:47:38;;;;;;;41.25;20.20;;;10.70;78.20;;;;;;4976773;28;20019;-81
2021/05/10 02:50:13;;;;;;;38.97;19.50;;;11.70;75.40;;;;;;4976245;28;20030;-82
2021/05/10 02:52:39;;;;;;;43.63;20.10;;;12.50;71.60;;;;;;4975446;28;20035;-82
2021/05/10 02:55:07;;;;;;;42.53;21.05;;;13.10;69.60;;;;;;4974065;28;20050;-79
2021/05/10 02:57:33;;;;;;;42.65;21.90;;;13.30;66.70;;;;;;4975434;28;20027;-82
2021/05/10 02:59:58;;;;;;;36.78;19.45;;;13.70;65.40;;;;;;4974808;28;20030;-80
2021/05/10 03:02:24;;;;;;;33.83;19.50;;;14.40;64.20;;;;;;4981535;28;20035;-80
2021/05/10 03:04:50;;;;;;;39.05;20.58;;;15.20;62.30;;;;;;4977458;28;20374;-82
2021/05/10 03:07:16;;;;;;;45.88;18.35;;;16.00;60.40;;;;;;4976750;28;20389;-81
2021/05/10 03:09:42;;;;;;;29.45;17.38;;;16.80;58.00;;;;;;4975131;28;20039;-80
2021/05/10 03:12:08;;;;;;;34.80;17.85;;;17.40;55.80;;;;;;4975029;28;20025;-80
2021/05/10 03:14:34;;;;;;;29.17;17.23;;;18.00;54.10;;;;;;4975046;28;20019;-80
2021/05/10 03:17:00;;;;;;;30.35;17.33;;;18.50;52.60;;;;;;4976567;28;20440;-80
2021/05/10 03:19:26;;;;;;;35.05;18.30;;;19.00;51.50;;;;;;4975159;28;20107;-80
2021/05/10 03:21:51;;;;;;;29.60;17.80;;;19.50;50.20;;;;;;4974685;28;20026;-80
2021/05/10 03:24:17;;;;;;;29.52;18.35;;;20.00;49.00;;;;;;4974670;28;20065;-80
2021/05/10 03:26:43;;;;;;;27.20;16.52;;;20.50;47.80;;;;;;4974364;28;20055;-80
2021/05/10 03:29:09;;;;;;;24.13;13.75;;;21.00;46.50;;;;;;4974185;28;20366;-80
2021/05/10 03:31:35;;;;;;;27.83;14.43;;;21.60;45.30;;;;;;5005935;28;20489;-81
2021/05/10 03:34:02;;;;;;;22.02;14.05;;;22.20;44.10;;;;;;4974220;28;20031;-77
2021/05/10 03:36:28;;;;;;;31.98;14.75;;;22.90;43.10;;;;;;5005260;28;20070;-79
2021/05/10 03:38:54;;;;;;;21.63;14.93;;;23.50;42.10;;;;;;4973930;28;20440;-78
2021/05/10 03:41:22;;;;;;;18.48;13.93;;;24.20;41.10;;;;;;4974369;28;20470;-78
2021/05/10 03:43:48;;;;;;;23.35;13.30;;;24.80;40.20;;;;;;4974762;28;20026;-78
2021/05/10 03:46:14;;;;;;;24.33;13.65;;;25.40;39.00;;;;;;4974107;28;20073;-79
2021/05/10 03:48:40;;;;;;;30.27;14.27;;;25.90;38.20;;;;;;4973750;28;20035;-79
2021/05/10 03:51:06;;;;;;;25.60;14.15;;;26.50;37.50;;;;;;4973885;28;20051;-79
2021/05/10 03:53:32;;;;;;;47.15;17.08;;;27.00;36.50;;;;;;4973053;28;20540;-79
2021/05/10 03:55:57;;;;;;;30.95;15.25;;;27.50;35.90;;;;;;4973458;28;20382;-79
2021/05/10 03:58:23;;;;;;;34.88;15.65;;;27.80;35.40;;;;;;4973514;28;20027;-78
2021/05/10 04:00:49;;;;;;;26.88;14.80;;;27.90;34.70;;;;;;4973627;28;20097;-79
2021/05/10 04:03:16;;;;;;;20.20;13.25;;;27.90;34.50;;;;;;4973837;28;20420;-77
2021/05/10 04:11:24;;;;;;;28.92;14.48;;;28.00;34.50;;;;;;4973548;28;20061;-80
2021/05/10 04:13:55;;;;;;;24.40;14.18;;;27.90;33.90;;;;;;4973580;28;20030;-80
2021/05/10 04:16:21;;;;;;;23.85;14.43;;;28.30;33.80;;;;;;4974600;28;20034;-81
2021/05/10 04:18:47;;;;;;;19.30;12.63;;;28.60;33.60;;;;;;4974356;28;20031;-80
2021/05/10 04:21:13;;;;;;;18.88;11.85;;;29.10;33.30;;;;;;4973606;28;20031;-80
2021/05/10 04:23:39;;;;;;;21.92;12.50;;;29.50;33.00;;;;;;4973889;28;20027;-81
2021/05/10 04:26:05;;;;;;;24.67;15.40;;;30.10;32.80;;;;;;4973901;28;20481;-79
2021/05/10 04:28:31;;;;;;;26.92;13.68;;;30.80;32.60;;;;;;4973388;28;20130;-81
2021/05/10 04:30:57;;;;;;;26.75;13.00;;;31.40;32.30;;;;;;4973431;28;20027;-82
2021/05/10 04:33:31;;;;;;;23.77;12.43;;;32.00;31.90;;;;;;4973422;28;20504;-81
2021/05/10 04:35:57;;;;;;;23.23;13.02;;;32.50;31.30;;;;;;4977256;28;20026;-81
2021/05/10 04:38:24;;;;;;;17.95;12.43;;;32.90;31.10;;;;;;4977159;28;20477;-81
2021/05/10 04:40:50;;;;;;;27.23;15.05;;;33.00;30.70;;;;;;4977169;28;20033;-79
2021/05/10 04:43:16;;;;;;;33.63;19.35;;;33.20;30.80;;;;;;4977359;28;20101;-80
2021/05/10 04:45:43;;;;;;;23.88;14.15;;;33.30;30.70;;;;;;4977193;28;20089;-79
2021/05/10 04:48:09;;;;;;;23.45;14.63;;;33.30;30.60;;;;;;4978490;28;20449;-80
2021/05/10 04:50:34;;;;;;;25.10;17.17;;;33.40;30.70;;;;;;4979683;28;20030;-80
2021/05/10 04:53:00;;;;;;;22.10;16.05;;;33.40;30.70;;;;;;4977278;28;20027;-81
2021/05/10 04:55:26;;;;;;;24.42;15.43;;;33.60;30.70;;;;;;4977084;28;20030;-81
2021/05/10 04:57:51;;;;;;;24.33;15.35;;;33.70;30.50;;;;;;4976875;28;20030;-80
2021/05/10 05:00:18;;;;;;;24.05;15.48;;;33.90;30.40;;;;;;4976619;28;20030;-81
2021/05/10 05:02:45;;;;;;;27.77;15.82;;;34.20;30.30;;;;;;5008315;28;20048;-80
2021/05/10 05:05:12;;;;;;;28.48;15.00;;;34.40;30.10;;;;;;4976988;28;20023;-80
2021/05/10 05:07:41;;;;;;;29.00;16.50;;;34.70;30.00;;;;;;4976937;28;20034;-80
2021/05/10 05:10:08;;;;;;;26.17;15.15;;;35.20;29.90;;;;;;4976601;28;20051;-82
2021/05/10 05:12:34;;;;;;;27.17;15.27;;;35.60;29.50;;;;;;4976630;28;20041;-81
2021/05/10 05:15:00;;;;;;;22.75;14.48;;;35.90;29.20;;;;;;4976725;28;20033;-81
2021/05/10 05:17:26;;;;;;;22.10;15.55;;;35.90;29.10;;;;;;4976256;28;20026;-81
2021/05/10 05:19:52;;;;;;;22.25;13.73;;;35.80;29.10;;;;;;4976618;28;20023;-81
2021/05/10 05:22:17;;;;;;;23.77;13.88;;;35.80;29.20;;;;;;4975814;28;20485;-80
2021/05/10 05:24:43;;;;;;;22.58;14.50;;;35.80;29.20;;;;;;4978001;28;20027;-79
2021/05/10 05:27:09;;;;;;;21.70;14.38;;;36.00;29.30;;;;;;4975756;28;20051;-80
2021/05/10 05:29:35;;;;;;;29.58;16.60;;;36.30;29.10;;;;;;4975252;28;20035;-80
2021/05/10 05:32:00;;;;;;;20.80;13.90;;;36.50;28.90;;;;;;4974780;28;20136;-81
2021/05/10 05:34:26;;;;;;;27.27;15.43;;;36.70;28.50;;;;;;4974697;28;20031;-76
2021/05/10 05:36:52;;;;;;;28.15;13.98;;;36.80;28.00;;;;;;4974149;28;20031;-78
2021/05/10 05:39:18;;;;;;;32.45;15.05;;;37.00;27.40;;;;;;4973671;28;20034;-78
2021/05/10 05:41:44;;;;;;;14.73;7.95;;;37.20;26.80;;;;;;4972714;28;20023;-79
2021/05/10 05:44:09;;;;;;;23.35;12.20;;;37.40;26.10;;;;;;4972870;28;20404;-79
2021/05/10 05:46:39;;;;;;;27.50;14.85;;;37.60;26.00;;;;;;4973148;28;20457;-78
2021/05/10 05:49:05;;;;;;;47.07;22.17;;;37.70;25.90;;;;;;4973856;28;20122;-78
2021/05/10 05:51:31;;;;;;;34.97;17.20;;;37.80;26.00;;;;;;4972997;28;20380;-76
2021/05/10 05:53:57;;;;;;;29.30;14.43;;;38.00;26.30;;;;;;5003840;28;20477;-78
2021/05/10 05:56:23;;;;;;;17.02;11.10;;;38.10;26.40;;;;;;4973108;28;20041;-78
2021/05/10 05:58:49;;;;;;;21.75;10.52;;;38.20;26.20;;;;;;4973264;28;20445;-78
2021/05/10 06:01:16;;;;;;;27.40;10.55;;;38.40;25.70;;;;;;4973832;28;20070;-79
2021/05/10 06:03:42;;;;;;;21.98;10.15;;;38.40;25.20;;;;;;4974746;28;20027;-78
2021/05/10 06:06:08;;;;;;;18.38;9.75;;;38.40;25.00;;;;;;4973121;28;20389;-78
2021/05/10 06:08:34;;;;;;;18.75;9.50;;;38.50;24.80;;;;;;4972890;28;20054;-78
2021/05/10 06:11:02;;;;;;;19.45;11.18;;;38.60;24.70;;;;;;4973023;28;20047;-78
2021/05/10 06:13:28;;;;;;;19.63;9.30;;;38.70;24.70;;;;;;4973089;28;20026;-79
2021/05/10 06:15:53;;;;;;;17.13;8.45;;;38.80;24.70;;;;;;5004246;28;20540;-79
2021/05/10 06:18:19;;;;;;;18.40;9.25;;;38.90;24.60;;;;;;4972861;28;20022;-79
2021/05/10 06:20:45;;;;;;;17.40;10.13;;;39.00;24.40;;;;;;4972398;28;20438;-80
2021/05/10 06:23:10;;;;;;;17.23;9.65;;;39.00;24.30;;;;;;4972943;28;20015;-81
2021/05/10 06:25:36;;;;;;;17.55;10.93;;;39.00;24.30;;;;;;4972674;28;20445;-82
2021/05/10 06:28:02;;;;;;;15.57;9.93;;;38.90;24.20;;;;;;4976083;28;813924;-81
2021/05/10 06:30:28;;;;;;;21.70;9.90;;;39.00;24.30;;;;;;4973298;28;20030;-80
2021/05/10 06:32:54;;;;;;;22.05;12.60;;;38.80;24.20;;;;;;4974430;28;20059;-80
2021/05/10 06:35:20;;;;;;;16.23;9.60;;;38.80;24.30;;;;;;4976415;28;20018;-81
2021/05/10 06:37:46;;;;;;;19.70;11.43;;;38.80;24.30;;;;;;4974791;28;20485;-82
2021/05/10 06:40:12;;;;;;;21.77;11.77;;;38.70;24.40;;;;;;4974233;28;20029;-82
2021/05/10 06:42:38;;;;;;;22.05;10.93;;;38.70;24.30;;;;;;4973476;28;20031;-81
2021/05/10 06:45:08;;;;;;;21.20;10.60;;;38.50;24.20;;;;;;4973518;28;20035;-81
2021/05/10 06:47:37;;;;;;;22.93;10.73;;;38.20;24.20;;;;;;4974131;28;20022;-82
2021/05/10 06:50:07;;;;;;;23.48;9.73;;;37.90;24.30;;;;;;4972675;28;20027;-82
2021/05/10 06:52:34;;;;;;;15.93;8.95;;;37.60;24.30;;;;;;4973723;28;20018;-80
2021/05/10 06:54:59;;;;;;;14.60;9.07;;;37.30;24.10;;;;;;4974655;28;20105;-82
2021/05/10 06:57:25;;;;;;;13.98;7.90;;;37.20;24.10;;;;;;4973594;28;20922;-81
2021/05/10 06:59:51;;;;;;;15.95;8.68;;;37.20;24.00;;;;;;4974314;28;20478;-80
2021/05/10 07:02:19;;;;;;;20.17;8.32;;;37.10;24.10;;;;;;4974005;28;20031;-80
2021/05/10 07:04:45;;;;;;;6.22;3.55;;;36.90;24.20;;;;;;4974217;28;20453;-81
2021/05/10 07:07:10;;;;;;;9.77;4.07;;;36.70;23.70;;;;;;5005141;28;20074;-80
2021/05/10 07:09:36;;;;;;;11.05;4.35;;;36.40;23.50;;;;;;4974941;28;20031;-79
2021/05/10 07:12:02;;;;;;;7.20;3.25;;;35.80;23.40;;;;;;4974973;28;20063;-81
2021/05/10 07:14:28;;;;;;;6.82;3.70;;;35.00;23.20;;;;;;4974345;28;20027;-80
2021/05/10 07:16:53;;;;;;;7.70;5.68;;;34.30;23.30;;;;;;4973451;28;20031;-79
2021/05/10 07:19:19;;;;;;;3.83;2.45;;;33.70;23.70;;;;;;4972667;28;20027;-80
2021/05/10 07:21:45;;;;;;;5.07;2.38;;;33.50;23.90;;;;;;4974997;28;20050;-80
2021/05/10 07:24:11;;;;;;;3.25;2.72;;;33.60;24.20;;;;;;4973811;28;20023;-81
2021/05/10 07:26:36;;;;;;;5.95;2.30;;;33.70;24.20;;;;;;4973745;28;20057;-81
2021/05/10 07:29:03;;;;;;;6.22;3.13;;;33.80;24.10;;;;;;4973538;28;20478;-83
2021/05/10 07:31:28;;;;;;;8.85;5.13;;;33.70;24.00;;;;;;4974015;28;20023;-83
2021/05/10 07:33:54;;;;;;;6.53;3.70;;;33.60;24.00;;;;;;4973686;28;20035;-83
2021/05/10 07:36:20;;;;;;;5.53;2.88;;;33.60;24.30;;;;;;4973963;28;20035;-82
2021/05/10 07:38:46;;;;;;;2.90;2.30;;;33.50;24.40;;;;;;4975080;28;20023;-83
2021/05/10 07:41:11;;;;;;;3.53;2.50;;;33.40;24.40;;;;;;4974358;28;20023;-83
2021/05/10 07:43:37;;;;;;;13.45;3.97;;;33.20;24.10;;;;;;4973346;28;20321;-85
2021/05/10 07:46:03;;;;;;;3.63;3.10;;;33.00;24.10;;;;;;4979145;28;20102;-88
2021/05/10 07:48:30;;;;;;;2.25;2.05;;;32.90;24.10;;;;;;4975395;28;20034;-87
2021/05/10 07:50:56;;;;;;;5.82;2.15;;;32.70;23.90;;;;;;5006253;28;20034;-87
2021/05/10 07:53:21;;;;;;;5.60;2.30;;;32.50;23.80;;;;;;4973451;28;20026;-88
2021/05/10 07:55:49;;;;;;;3.05;2.70;;;32.10;24.00;;;;;;5006298;28;20030;-87
2021/05/10 07:58:21;;;;;;;3.45;2.40;;;31.70;24.00;;;;;;4974732;28;20023;-87
2021/05/10 08:00:47;;;;;;;6.13;3.72;;;31.40;24.50;;;;;;4973595;28;20109;-86
2021/05/10 08:03:15;;;;;;;5.05;2.60;;;31.20;24.60;;;;;;4974037;28;20026;-87
2021/05/10 08:05:43;;;;;;;7.00;2.58;;;31.00;24.50;;;;;;4974718;28;20015;-87
2021/05/10 08:08:13;;;;;;;3.20;2.47;;;30.40;24.30;;;;;;4971219;28;20019;-80
2021/05/10 08:10:39;;;;;;;3.47;2.80;;;29.80;24.30;;;;;;4973160;28;20109;-83
2021/05/10 08:13:05;;;;;;;5.88;3.30;;;29.00;24.70;;;;;;4972000;28;20444;-78
2021/05/10 08:15:31;;;;;;;6.05;3.30;;;28.60;25.10;;;;;;4973782;28;20054;-82
2021/05/10 08:17:57;;;;;;;5.65;4.80;;;28.30;25.60;;;;;;4973930;28;20403;-76
2021/05/10 08:20:22;;;;;;;10.60;4.30;;;28.20;26.00;;;;;;4973242;28;20026;-78
2021/05/10 08:22:48;;;;;;;6.72;3.60;;;28.10;26.20;;;;;;4974135;28;20027;-89
2021/05/10 08:25:14;;;;;;;6.13;3.30;;;28.00;26.00;;;;;;4976153;28;20027;-82
2021/05/10 08:27:40;;;;;;;8.30;3.35;;;27.90;26.10;;;;;;4973912;28;20541;-81
2021/05/10 08:30:08;;;;;;;4.50;3.28;;;27.90;26.30;;;;;;4973197;28;20486;-81
2021/05/10 08:32:35;;;;;;;5.47;3.20;;;27.90;26.60;;;;;;4972981;28;20022;-82
2021/05/10 08:35:01;;;;;;;3.17;2.88;;;27.90;27.00;;;;;;4972643;28;20023;-81
2021/05/10 08:37:28;;;;;;;4.60;3.00;;;27.80;26.50;;;;;;4972743;28;20066;-81
2021/05/10 08:39:54;;;;;;;4.65;3.42;;;27.70;26.40;;;;;;4971273;28;20448;-82
2021/05/10 08:42:20;;;;;;;3.38;2.75;;;27.60;26.40;;;;;;4972553;28;20101;-80
2021/05/10 08:44:46;;;;;;;12.30;3.45;;;27.40;26.40;;;;;;4971216;28;20157;-81
2021/05/10 08:47:11;;;;;;;10.80;3.15;;;27.30;26.40;;;;;;4971206;28;20120;-81
2021/05/10 08:49:37;;;;;;;6.32;2.60;;;27.20;27.00;;;;;;4972788;28;20101;-82
2021/05/10 08:52:03;;;;;;;4.45;3.00;;;27.10;26.90;;;;;;4971167;28;20046;-82
2021/05/10 08:54:31;;;;;;;2.85;2.55;;;27.00;26.50;;;;;;4971562;28;20031;-81
2021/05/10 08:56:57;;;;;;;3.15;2.85;;;26.80;26.50;;;;;;4973389;28;20019;-83
2021/05/10 08:59:24;;;;;;;5.70;2.90;;;26.70;26.80;;;;;;4972481;28;20023;-81
2021/05/10 09:02:01;;;;;;;6.43;2.97;;;26.70;27.10;;;;;;4973062;28;20023;-81
2021/05/10 09:04:36;;;;;;;2.70;2.33;;;26.50;26.90;;;;;;4972769;28;20023;-82
2021/05/10 09:07:14;;;;;;;3.28;2.60;;;26.40;26.90;;;;;;4972396;28;20034;-82
2021/05/10 09:10:06;;;;;;;3.92;2.83;;;26.30;26.80;;;;;;4972143;28;20049;-81
2021/05/10 09:12:48;;;;;;;15.48;2.92;;;26.00;26.60;;;;;;4973446;28;20022;-85
2021/05/10 09:15:30;;;;;;;8.55;2.75;;;25.70;27.10;;;;;;4973416;28;20035;-83
2021/05/10 09:18:04;;;;;;;5.18;2.80;;;25.60;27.20;;;;;;4971571;28;20023;-84
2021/05/10 09:20:33;;;;;;;7.25;3.40;;;25.50;27.40;;;;;;4974732;28;20023;-83
2021/05/10 09:23:04;;;;;;;3.63;2.40;;;25.40;27.50;;;;;;4979336;28;20038;-82
2021/05/10 09:25:35;;;;;;;6.05;2.92;;;25.40;27.50;;;;;;4978897;28;20031;-83
2021/05/10 09:28:20;;;;;;;8.07;5.00;;;25.50;27.90;;;;;;4975915;28;20050;-83
2021/05/10 09:30:47;;;;;;;4.07;2.60;;;25.50;28.00;;;;;;4976655;28;20031;-83
2021/05/10 09:33:26;;;;;;;8.07;2.58;;;25.60;27.90;;;;;;4975898;28;20454;-82
2021/05/10 09:35:55;;;;;;;4.55;2.70;;;25.50;27.80;;;;;;4976650;28;20110;-84
2021/05/10 09:38:26;;;;;;;6.50;3.97;;;25.50;27.80;;;;;;4975950;28;20065;-83
2021/05/10 09:40:53;;;;;;;3.50;3.00;;;25.50;28.10;;;;;;4976264;28;20351;-83
2021/05/10 09:43:23;;;;;;;4.68;2.88;;;25.40;28.00;;;;;;4976284;28;20078;-82
2021/05/10 09:45:53;;;;;;;3.25;2.40;;;25.40;27.80;;;;;;4976035;28;20029;-82
2021/05/10 09:48:32;;;;;;;4.28;2.42;;;25.30;27.60;;;;;;4975676;28;20026;-82
2021/05/10 09:51:03;;;;;;;2.95;2.17;;;25.10;27.20;;;;;;4975705;28;20485;-80
2021/05/10 09:53:53;;;;;;;9.07;4.00;;;24.90;27.60;;;;;;4974853;28;20042;-82
2021/05/10 09:56:25;;;;;;;2.78;2.50;;;24.80;27.80;;;;;;4975722;28;20034;-82
2021/05/10 09:58:52;;;;;;;10.57;3.05;;;24.70;27.90;;;;;;4975375;28;20037;-83
2021/05/10 10:01:18;;;;;;;3.28;2.53;;;24.70;27.90;;;;;;4974299;28;20026;-84
2021/05/10 10:03:46;;;;;;;4.32;2.40;;;24.50;27.80;;;;;;4976132;28;20026;-82
2021/05/10 10:06:16;;;;;;;3.83;2.97;;;24.40;28.00;;;;;;4981811;28;20038;-82
2021/05/10 10:08:51;;;;;;;3.25;2.40;;;24.30;28.10;;;;;;4977099;28;20019;-82
2021/05/10 10:11:18;;;;;;;5.78;3.03;;;24.30;28.00;;;;;;4976375;28;20027;-84
2021/05/10 10:13:45;;;;;;;5.43;2.60;;;24.20;27.90;;;;;;4974512;28;20136;-81
2021/05/10 10:16:13;;;;;;;3.42;2.60;;;24.10;27.80;;;;;;4975318;28;20030;-80
2021/05/10 10:18:41;;;;;;;4.93;3.17;;;24.10;28.00;;;;;;4976756;28;20031;-90
2021/05/10 10:21:09;;;;;;;2.67;2.40;;;24.10;28.20;;;;;;4975764;28;20058;-82
2021/05/10 10:23:36;;;;;;;3.00;2.30;;;24.00;28.20;;;;;;4974006;28;20027;-80
2021/05/10 10:26:05;;;;;;;4.03;2.28;;;23.90;27.90;;;;;;4975426;28;20098;-86
2021/05/10 10:28:33;;;;;;;3.55;2.47;;;23.70;27.90;;;;;;4975485;28;20047;-83
2021/05/10 10:31:27;;;;;;;4.50;2.92;;;23.60;28.20;;;;;;4974107;28;20027;-82
2021/05/10 10:34:02;;;;;;;4.65;3.05;;;23.40;28.60;;;;;;4947064;28;20038;-83
2021/05/10 10:36:55;;;;;;;3.92;3.03;;;23.30;28.70;;;;;;4973809;28;20054;-85
2021/05/10 10:39:22;;;;;;;2.80;2.60;;;23.20;29.00;;;;;;4971850;28;20035;-82
2021/05/10 10:41:57;;;;;;;8.90;2.83;;;23.20;28.90;;;;;;4977881;28;20086;-84
2021/05/10 10:44:32;;;;;;;4.85;2.85;;;23.10;28.90;;;;;;4977686;28;20043;-83
2021/05/10 10:47:05;;;;;;;3.30;2.28;;;23.10;28.80;;;;;;4975540;28;20019;-83
2021/05/10 10:49:45;;;;;;;9.63;2.70;;;23.00;28.70;;;;;;4975418;28;20105;-83
2021/05/10 10:52:16;;;;;;;5.40;2.33;;;22.90;28.90;;;;;;4974722;28;20054;-81
2021/05/10 10:54:42;;;;;;;2.70;2.50;;;22.80;28.90;;;;;;4974838;28;20038;-84
2021/05/10 10:57:08;;;;;;;6.75;3.67;;;22.80;28.80;;;;;;4975622;28;20035;-84
2021/05/10 10:59:38;;;;;;;5.00;3.25;;;22.70;29.20;;;;;;4975739;28;20018;-84
2021/05/10 11:02:17;;;;;;;6.63;2.90;;;22.70;29.40;;;;;;4973868;28;20061;-83
2021/05/10 11:04:43;;;;;;;3.33;2.42;;;22.70;29.50;;;;;;4973190;28;20038;-81
2021/05/10 11:07:10;;;;;;;4.07;2.50;;;22.60;29.30;;;;;;4973556;28;20043;-83
2021/05/10 11:09:49;;;;;;;4.20;2.58;;;22.60;29.50;;;;;;4973998;28;20429;-82
2021/05/10 11:12:46;;;;;;;8.02;2.10;;;22.60;28.80;;;;;;4974490;28;20073;-82
2021/05/10 11:15:33;;;;;;;8.82;2.80;;;22.50;28.70;;;;;;4975493;28;20038;-82
2021/05/10 11:17:59;;;;;;;3.65;2.50;;;22.40;28.80;;;;;;4977245;28;20034;-83
2021/05/10 11:20:42;;;;;;;2.80;2.60;;;22.40;28.80;;;;;;4973295;28;20031;-83
2021/05/10 11:23:26;;;;;;;7.40;2.60;;;22.30;28.70;;;;;;4973492;28;20393;-82
2021/05/10 11:25:53;;;;;;;7.28;3.60;;;22.20;28.90;;;;;;4971781;28;20034;-82
2021/05/10 11:28:25;;;;;;;7.05;2.55;;;22.20;29.20;;;;;;4973225;28;20042;-77
2021/05/10 11:31:04;;;;;;;3.33;2.70;;;22.20;29.30;;;;;;4973351;28;20023;-89
2021/05/10 11:33:52;;;;;;;5.90;2.42;;;22.20;29.50;;;;;;4973408;28;20035;-80
2021/05/10 11:36:37;;;;;;;3.10;2.65;;;22.20;29.20;;;;;;4972984;28;20031;-75
2021/05/10 11:39:15;;;;;;;11.25;3.95;;;22.10;29.30;;;;;;4973147;28;20122;-83
2021/05/10 11:41:44;;;;;;;4.25;2.80;;;22.10;29.40;;;;;;4973386;28;20078;-83
2021/05/10 11:44:25;;;;;;;5.40;2.90;;;22.00;29.00;;;;;;4970274;28;20398;-82
2021/05/10 11:46:58;;;;;;;9.38;3.25;;;21.80;29.40;;;;;;4972809;28;20102;-83
2021/05/10 11:49:25;;;;;;;4.75;2.75;;;21.70;29.70;;;;;;4973872;28;20283;-84
2021/05/10 11:51:52;;;;;;;4.22;3.63;;;21.70;30.00;;;;;;4975534;28;20031;-83
2021/05/10 11:54:20;;;;;;;3.20;2.22;;;21.70;29.80;;;;;;4973965;28;20027;-82
2021/05/10 11:56:46;;;;;;;7.30;2.47;;;21.60;29.50;;;;;;4973487;28;20037;-82
2021/05/10 11:59:36;;;;;;;4.47;2.75;;;21.60;29.30;;;;;;4972834;28;20239;-82
2021/05/10 12:02:14;;;;;;;14.88;3.63;;;21.60;29.20;;;;;;4969721;28;20031;-83
2021/05/10 12:04:48;;;;;;;6.20;2.45;;;21.60;29.30;;;;;;4971999;28;20030;-83
2021/05/10 12:07:14;;;;;;;6.60;2.53;;;21.50;29.30;;;;;;4974754;28;20209;-83
2021/05/10 12:09:48;;;;;;;2.85;2.40;;;21.50;29.20;;;;;;4975002;28;20034;-84
2021/05/10 12:12:14;;;;;;;3.90;2.80;;;21.40;29.20;;;;;;4957428;28;20371;-83
2021/05/10 12:14:46;;;;;;;5.35;3.17;;;21.40;29.40;;;;;;4973579;28;20171;-83
2021/05/10 12:17:17;;;;;;;2.50;2.30;;;21.40;29.50;;;;;;4971732;28;20806;-83
2021/05/10 12:20:12;;;;;;;20.67;3.22;;;21.40;29.40;;;;;;4973486;28;20041;-83
2021/05/10 12:22:40;;;;;;;4.88;2.40;;;21.30;29.40;;;;;;4974139;28;20111;-83
2021/05/10 12:25:12;;;;;;;7.53;2.80;;;21.20;29.40;;;;;;4970905;28;20536;-83
2021/05/10 12:27:47;;;;;;;4.38;2.58;;;21.10;29.30;;;;;;4973559;28;20093;-82
2021/05/10 12:30:19;;;;;;;5.53;2.58;;;21.00;29.60;;;;;;4974097;28;20030;-84
2021/05/10 12:32:48;;;;;;;3.70;2.75;;;21.00;29.40;;;;;;4973031;28;20099;-82
2021/05/10 12:35:17;;;;;;;6.35;3.35;;;21.00;29.40;;;;;;4973309;28;20079;-83
2021/05/10 12:37:46;;;;;;;3.20;2.60;;;20.90;29.50;;;;;;4973220;28;20034;-82
2021/05/10 12:40:14;;;;;;;3.53;2.80;;;20.90;29.60;;;;;;4973845;28;20432;-82
2021/05/10 12:42:41;;;;;;;4.03;3.00;;;20.90;29.90;;;;;;4972911;28;20414;-82
2021/05/10 12:45:13;;;;;;;4.43;2.50;;;20.80;30.00;;;;;;4971171;28;20023;-82
2021/05/10 12:47:41;;;;;;;10.32;6.90;;;20.80;30.00;;;;;;4972934;28;20047;-84
2021/05/10 12:50:13;;;;;;;3.40;2.42;;;20.80;30.00;;;;;;4972964;28;20098;-82